createdAt,value
2023-04-04T00:02:58.059Z,52.50
2023-04-04T00:06:01.314Z,52.30
2023-04-04T00:09:04.487Z,52.40
2023-04-04T00:12:06.557Z,52.60
2023-04-04T00:15:09.128Z,52.70
2023-04-04T00:18:11.488Z,52.90
2023-04-04T00:21:13.502Z,52.80
2023-04-04T00:24:15.422Z,52.50
2023-04-04T00:27:17.418Z,52.80
2023-04-04T00:30:19.644Z,53.00
2023-04-04T00:33:23.975Z,53.00
2023-04-04T00:36:25.985Z,52.60
2023-04-04T00:39:27.959Z,53.50
2023-04-04T00:42:30.026Z,54.20
2023-04-04T00:45:32.039Z,52.40
2023-04-04T00:48:34.076Z,53.00
2023-04-04T00:51:36.076Z,53.50
2023-04-04T00:54:38.348Z,53.60
2023-04-04T00:57:41.088Z,54.60
2023-04-04T01:00:43.171Z,53.40
2023-04-04T01:03:45.673Z,54.20
2023-04-04T01:06:47.849Z,54.40
2023-04-04T01:09:50.884Z,54.80
2023-04-04T01:12:53.054Z,54.40
2023-04-04T01:15:55.322Z,54.50
2023-04-04T01:18:57.790Z,55.20
2023-04-04T01:22:01.187Z,54.80
2023-04-04T01:25:05.514Z,54.80
2023-04-04T01:28:07.688Z,54.60
2023-04-04T01:31:13.210Z,54.80
2023-04-04T01:34:20.762Z,55.30
2023-04-04T01:37:33.109Z,55.70
2023-04-04T01:40:37.699Z,55.40
2023-04-04T01:43:45.449Z,55.10
2023-04-04T01:46:52.650Z,55.30
2023-04-04T01:49:54.702Z,55.70
2023-04-04T01:52:59.976Z,55.00
2023-04-04T01:56:04.424Z,55.60
2023-04-04T01:59:15.488Z,55.90
2023-04-04T02:02:17.540Z,55.40
2023-04-04T02:05:20.255Z,55.00
2023-04-04T02:08:22.260Z,56.10
2023-04-04T02:11:28.933Z,56.00
2023-04-04T02:14:30.860Z,56.20
2023-04-04T02:17:32.859Z,56.00
2023-04-04T02:20:34.912Z,56.10
2023-04-04T02:23:36.830Z,56.20
2023-04-04T02:26:38.805Z,55.50
2023-04-04T02:29:41.249Z,56.50
2023-04-04T02:32:43.227Z,56.50
2023-04-04T02:35:49.214Z,56.30
2023-04-04T02:38:51.254Z,56.40
2023-04-04T02:41:56.053Z,56.30
2023-04-04T02:44:58.122Z,56.80
2023-04-04T02:48:00.300Z,57.00
2023-04-04T02:51:11.970Z,57.10
2023-04-04T02:54:13.978Z,56.70
2023-04-04T02:57:19.566Z,57.20
2023-04-04T03:00:21.678Z,57.20
2023-04-04T03:03:23.875Z,57.50
2023-04-04T03:06:26.042Z,57.90
2023-04-04T03:09:29.100Z,57.20
2023-04-04T03:12:31.327Z,57.20
2023-04-04T03:15:33.624Z,57.30
2023-04-04T03:18:35.664Z,57.80
2023-04-04T03:21:38.618Z,57.20
2023-04-04T03:24:41.015Z,57.70
2023-04-04T03:27:43.136Z,57.50
2023-04-04T03:30:45.157Z,57.80
2023-04-04T03:33:47.636Z,58.10
2023-04-04T03:36:50.459Z,58.10
2023-04-04T03:42:59.816Z,58.40
2023-04-04T03:46:02.754Z,58.50
2023-04-04T03:49:04.763Z,58.90
2023-04-04T03:52:07.346Z,58.20
2023-04-04T03:55:09.916Z,58.50
2023-04-04T03:58:11.946Z,60.10
2023-04-04T04:01:14.073Z,58.80
2023-04-04T04:04:17.119Z,59.20
2023-04-04T04:07:19.152Z,59.50
2023-04-04T04:10:24.652Z,59.40
2023-04-04T04:13:26.636Z,59.70
2023-04-04T04:16:29.381Z,60.10
2023-04-04T04:19:32.610Z,60.60
2023-04-04T04:22:35.048Z,59.90
2023-04-04T04:25:37.742Z,60.00
2023-04-04T04:28:49.616Z,60.60
2023-04-04T04:31:57.122Z,61.30
2023-04-04T04:35:03.537Z,60.60
2023-04-04T04:38:08.857Z,60.60
2023-04-04T04:41:11.389Z,60.50
2023-04-04T04:44:18.966Z,61.90
2023-04-04T04:47:21.924Z,61.40
2023-04-04T04:50:24.454Z,61.10
2023-04-04T04:53:27.335Z,60.70
2023-04-04T04:59:46.035Z,60.70
2023-04-04T05:02:49.882Z,60.90
2023-04-04T05:05:58.870Z,60.70
2023-04-04T05:09:01.677Z,60.50
2023-04-04T05:12:10.257Z,60.90
2023-04-04T05:15:20.296Z,61.00
2023-04-04T05:18:26.005Z,61.30
2023-04-04T05:21:28.585Z,61.20
2023-04-04T05:24:32.721Z,60.90
2023-04-04T05:27:35.999Z,60.70
2023-04-04T05:30:38.787Z,61.10
2023-04-04T05:33:47.199Z,61.70
2023-04-04T05:37:08.115Z,61.70
2023-04-04T05:40:11.175Z,61.30
2023-04-04T05:43:13.402Z,62.00
2023-04-04T05:46:31.680Z,62.00
2023-04-04T05:49:33.944Z,61.30
2023-04-04T05:52:37.355Z,61.10
2023-04-04T05:55:39.800Z,60.80
2023-04-04T05:58:43.759Z,60.60
2023-04-04T06:01:49.431Z,60.40
2023-04-04T06:04:52.961Z,60.40
2023-04-04T06:08:04.004Z,59.40
2023-04-04T06:11:05.962Z,59.10
2023-04-04T06:14:08.485Z,58.10
2023-04-04T06:17:11.178Z,57.60
2023-04-04T06:20:13.358Z,56.10
2023-04-04T06:23:16.950Z,54.70
2023-04-04T06:26:22.520Z,53.60
2023-04-04T06:29:25.810Z,52.60
2023-04-04T06:32:31.960Z,50.40
2023-04-04T06:35:34.241Z,48.10
2023-04-04T06:38:39.548Z,47.30
2023-04-04T06:41:50.331Z,46.90
2023-04-04T06:44:58.715Z,45.50
2023-04-04T06:48:00.832Z,44.30
2023-04-04T06:51:08.557Z,42.80
2023-04-04T06:54:13.176Z,41.50
2023-04-04T06:57:15.489Z,39.80
2023-04-04T07:00:17.970Z,38.60
2023-04-04T07:03:20.107Z,38.60
2023-04-04T07:06:25.642Z,37.30
2023-04-04T07:09:29.565Z,37.70
2023-04-04T07:12:32.577Z,37.00
2023-04-04T07:15:34.619Z,36.40
2023-04-04T07:18:36.814Z,35.30
2023-04-04T07:21:38.859Z,35.00
2023-04-04T07:24:41.418Z,34.60
2023-04-04T07:27:43.508Z,33.90
2023-04-04T07:30:46.000Z,34.30
2023-04-04T07:33:51.839Z,32.70
2023-04-04T07:36:53.961Z,32.60
2023-04-04T07:39:56.080Z,32.90
2023-04-04T07:42:58.158Z,32.50
2023-04-04T07:46:00.424Z,32.60
2023-04-04T07:49:02.543Z,32.30
2023-04-04T07:52:04.852Z,31.70
2023-04-04T07:55:07.265Z,31.30
2023-04-04T07:58:09.369Z,30.20
2023-04-04T08:01:11.434Z,30.30
2023-04-04T08:04:13.578Z,30.80
2023-04-04T08:07:15.710Z,29.90
2023-04-04T08:10:18.039Z,30.10
2023-04-04T08:13:20.162Z,30.10
2023-04-04T08:16:22.435Z,30.80
2023-04-04T08:19:25.498Z,31.00
2023-04-04T08:22:27.572Z,30.80
2023-04-04T08:25:29.807Z,31.00
2023-04-04T08:28:32.005Z,30.90
2023-04-04T08:31:34.205Z,31.40
2023-04-04T08:34:36.351Z,31.40
2023-04-04T08:37:38.773Z,31.00
2023-04-04T08:40:41.186Z,31.20
2023-04-04T08:43:47.572Z,30.30
2023-04-04T08:46:51.347Z,30.60
2023-04-04T08:49:54.818Z,31.10
2023-04-04T08:52:58.546Z,31.70
2023-04-04T08:56:01.076Z,30.10
2023-04-04T08:59:03.358Z,31.10
2023-04-04T09:02:05.415Z,30.80
2023-04-04T09:05:08.760Z,30.90
2023-04-04T09:08:11.753Z,28.80
2023-04-04T09:11:16.071Z,29.80
2023-04-04T09:14:21.093Z,29.00
2023-04-04T09:17:23.249Z,29.50
2023-04-04T09:20:35.440Z,30.00
2023-04-04T09:23:37.711Z,30.60
2023-04-04T09:26:48.621Z,29.30
2023-04-04T09:29:51.084Z,29.70
2023-04-04T09:32:53.564Z,30.60
2023-04-04T09:35:59.235Z,28.70
2023-04-04T09:39:03.352Z,30.10
2023-04-04T09:42:07.372Z,31.10
2023-04-04T09:45:11.686Z,29.20
2023-04-04T09:48:26.521Z,28.70
2023-04-04T09:51:39.024Z,29.60
2023-04-04T09:54:47.984Z,28.80
2023-04-04T09:57:50.522Z,31.20
2023-04-04T10:00:57.064Z,30.40
2023-04-04T10:03:59.361Z,30.10
2023-04-04T10:07:01.586Z,30.50
2023-04-04T10:10:06.999Z,29.30
2023-04-04T10:13:11.916Z,32.00
2023-04-04T10:16:14.615Z,29.30
2023-04-04T10:19:18.330Z,30.90
2023-04-04T10:22:21.566Z,28.80
2023-04-04T10:25:24.337Z,28.60
2023-04-04T10:28:28.697Z,29.60
2023-04-04T10:31:34.757Z,28.60
2023-04-04T10:34:50.828Z,30.10
2023-04-04T10:38:04.125Z,30.20
2023-04-04T10:41:08.561Z,31.30
2023-04-04T10:44:30.475Z,30.30
2023-04-04T10:47:34.207Z,29.10
2023-04-04T11:03:20.260Z,30.00
2023-04-04T11:06:23.620Z,32.50
2023-04-04T11:09:47.411Z,32.20
2023-04-04T11:13:05.518Z,32.50
2023-04-04T11:16:14.523Z,32.00
2023-04-04T11:19:17.725Z,33.90
2023-04-04T11:22:22.788Z,34.10
2023-04-04T11:25:24.760Z,32.60
2023-04-04T11:28:28.191Z,31.30
2023-04-04T11:31:43.108Z,33.00
2023-04-04T11:34:45.248Z,32.80
2023-04-04T11:37:53.461Z,33.70
2023-04-04T11:40:56.148Z,33.10
2023-04-04T11:44:03.313Z,34.80
2023-04-04T11:47:08.029Z,34.60
2023-04-04T11:50:10.509Z,33.10
2023-04-04T11:53:13.555Z,34.40
2023-04-04T11:56:16.229Z,33.90
2023-04-04T11:59:20.138Z,31.70
2023-04-04T12:02:26.446Z,32.20
2023-04-04T12:05:30.043Z,33.70
2023-04-04T12:08:32.174Z,34.30
2023-04-04T12:11:35.175Z,34.70
2023-04-04T12:14:37.181Z,35.60
2023-04-04T12:17:42.595Z,35.90
2023-04-04T12:20:48.609Z,34.50
2023-04-04T12:23:50.622Z,34.50
2023-04-04T12:26:53.921Z,35.50
2023-04-04T12:29:57.029Z,33.90
2023-04-04T12:33:02.010Z,36.20
2023-04-04T12:36:05.288Z,34.20
2023-04-04T12:39:09.822Z,34.00
2023-04-04T12:42:11.837Z,34.20
2023-04-04T12:45:13.782Z,33.60
2023-04-04T12:48:16.533Z,37.30
2023-04-04T12:51:18.813Z,34.10
2023-04-04T12:54:32.274Z,33.50
2023-04-04T12:57:34.720Z,35.90
2023-04-04T13:00:37.022Z,36.80
2023-04-04T13:03:39.365Z,35.00
2023-04-04T13:06:44.527Z,35.00
2023-04-04T13:09:53.818Z,35.50
2023-04-04T13:13:00.772Z,36.50
2023-04-04T13:16:04.585Z,35.40
2023-04-04T13:19:07.128Z,35.20
2023-04-04T13:22:09.832Z,37.00
2023-04-04T13:25:12.440Z,36.10
2023-04-04T13:28:14.713Z,33.50
2023-04-04T13:31:16.992Z,35.40
2023-04-04T13:34:20.565Z,35.20
2023-04-04T13:37:22.619Z,35.70
2023-04-04T13:40:24.702Z,36.30
2023-04-04T13:43:27.337Z,35.10
2023-04-04T13:46:29.497Z,33.40
2023-04-04T13:49:34.016Z,34.80
2023-04-04T13:52:36.093Z,34.40
2023-04-04T13:55:39.109Z,34.50
2023-04-04T13:58:45.651Z,33.00
2023-04-04T14:01:47.848Z,33.10
2023-04-04T14:04:49.850Z,32.70
2023-04-04T14:07:52.161Z,33.20
2023-04-04T14:10:54.319Z,33.20
2023-04-04T14:13:56.618Z,33.60
2023-04-04T14:16:58.691Z,33.00
2023-04-04T14:20:01.109Z,33.20
2023-04-04T14:23:03.314Z,34.40
2023-04-04T14:26:05.507Z,34.30
2023-04-04T14:29:07.564Z,35.10
2023-04-04T14:32:10.745Z,34.60
2023-04-04T14:35:12.889Z,34.30
2023-04-04T14:38:15.012Z,34.10
2023-04-04T14:41:17.260Z,37.00
2023-04-04T14:44:19.680Z,35.30
2023-04-04T14:47:21.973Z,34.40
2023-04-04T14:50:24.169Z,36.20
2023-04-04T14:53:26.244Z,36.20
2023-04-04T14:56:28.392Z,34.80
2023-04-04T14:59:30.527Z,34.10
2023-04-04T15:02:32.722Z,32.50
2023-04-04T15:05:34.930Z,33.00
2023-04-04T15:08:37.027Z,34.00
2023-04-04T15:11:39.872Z,34.70
2023-04-04T15:14:42.436Z,34.60
2023-04-04T15:17:45.068Z,34.80
2023-04-04T15:20:47.269Z,34.50
2023-04-04T15:23:49.549Z,35.40
2023-04-04T15:26:51.655Z,35.70
2023-04-04T15:29:53.709Z,35.50
2023-04-04T15:32:56.629Z,34.50
2023-04-04T15:35:58.702Z,34.00
2023-04-04T15:39:00.753Z,32.10
2023-04-04T15:42:03.169Z,33.10
2023-04-04T15:45:06.286Z,35.00
2023-04-04T15:48:08.409Z,36.20
2023-04-04T15:51:10.664Z,36.10
2023-04-04T15:54:13.114Z,35.80
2023-04-04T15:57:15.229Z,36.10
2023-04-04T16:00:17.923Z,37.90
2023-04-04T16:03:21.010Z,35.00
2023-04-04T16:06:23.233Z,35.30
2023-04-04T16:09:25.350Z,34.50
2023-04-04T16:12:27.567Z,36.30
2023-04-04T16:15:30.796Z,35.40
2023-04-04T16:18:32.905Z,35.30
2023-04-04T16:21:35.179Z,36.30
2023-04-04T16:24:41.290Z,36.30
2023-04-04T16:27:43.427Z,35.80
2023-04-04T16:30:45.554Z,36.10
2023-04-04T16:33:47.716Z,36.20
2023-04-04T16:36:49.851Z,36.70
2023-04-04T16:39:52.000Z,37.60
2023-04-04T16:42:54.138Z,36.30
2023-04-04T16:45:56.229Z,36.80
2023-04-04T16:48:58.528Z,37.40
2023-04-04T16:52:00.625Z,37.00
2023-04-04T16:55:02.746Z,37.30
2023-04-04T16:58:04.771Z,37.50
2023-04-04T17:01:06.818Z,37.00
2023-04-04T17:04:09.034Z,37.10
2023-04-04T17:07:11.122Z,37.70
2023-04-04T17:10:13.847Z,38.50
2023-04-04T17:13:16.353Z,38.20
2023-04-04T17:16:18.358Z,38.20
2023-04-04T17:19:20.391Z,37.80
2023-04-04T17:22:22.426Z,37.60
2023-04-04T17:25:24.355Z,38.30
2023-04-04T17:28:26.344Z,38.60
2023-04-04T17:31:28.588Z,38.70
2023-04-04T17:34:30.670Z,39.10
2023-04-04T17:37:32.805Z,39.80
2023-04-04T17:40:34.769Z,39.10
2023-04-04T17:43:36.696Z,39.50
2023-04-04T17:46:38.833Z,39.80
2023-04-04T17:49:40.905Z,39.70
2023-04-04T17:52:42.950Z,41.90
2023-04-04T17:55:45.684Z,41.20
2023-04-04T17:58:47.765Z,41.60
2023-04-04T18:01:50.271Z,43.60
2023-04-04T18:04:52.278Z,40.50
2023-04-04T18:07:54.313Z,41.90
2023-04-04T18:10:58.047Z,41.80
2023-04-04T18:14:00.124Z,41.90
2023-04-04T18:17:02.258Z,40.70
2023-04-04T18:20:04.720Z,40.10
2023-04-04T18:23:06.714Z,41.10
2023-04-04T18:26:09.215Z,43.50
2023-04-04T18:29:15.084Z,42.00
2023-04-04T18:32:18.180Z,42.00
2023-04-04T18:35:22.434Z,41.80
2023-04-04T18:38:24.511Z,42.60
2023-04-04T18:41:26.669Z,42.80
2023-04-04T18:44:28.735Z,41.60
2023-04-04T18:47:30.830Z,42.10
2023-04-04T18:50:32.893Z,44.10
2023-04-04T18:53:34.921Z,44.10
2023-04-04T18:56:38.533Z,42.40
2023-04-04T18:59:41.204Z,42.80
2023-04-04T19:02:43.396Z,43.20
2023-04-04T19:05:48.270Z,43.60
2023-04-04T19:08:51.423Z,45.10
2023-04-04T19:11:53.658Z,43.60
2023-04-04T19:14:55.848Z,43.80
2023-04-04T19:17:57.854Z,44.90
2023-04-04T19:20:59.899Z,44.80
2023-04-04T19:24:01.853Z,46.40
2023-04-04T19:27:03.859Z,46.00
2023-04-04T19:30:32.339Z,44.70
2023-04-04T19:33:34.443Z,44.60
2023-04-04T19:36:37.695Z,44.70
2023-04-04T19:39:39.910Z,48.20
2023-04-04T19:42:42.016Z,47.10
2023-04-04T19:45:52.119Z,47.00
2023-04-04T19:48:55.064Z,47.10
2023-04-04T19:51:58.145Z,46.00
2023-04-04T19:55:02.202Z,46.50
2023-04-04T19:58:04.494Z,47.90
2023-04-04T20:01:07.918Z,47.30
2023-04-04T20:04:10.734Z,46.80
2023-04-04T20:07:12.838Z,47.30
2023-04-04T20:10:39.403Z,47.10
2023-04-04T20:13:42.604Z,47.70
2023-04-04T20:16:45.015Z,49.10
2023-04-04T20:19:47.015Z,48.40
2023-04-04T20:22:49.331Z,48.30
2023-04-04T20:25:51.508Z,48.00
2023-04-04T20:28:53.725Z,48.30
2023-04-04T20:31:58.474Z,48.40
2023-04-04T20:35:00.665Z,48.10
2023-04-04T20:38:02.682Z,48.10
2023-04-04T20:41:30.918Z,48.50
2023-04-04T20:44:32.880Z,49.10
2023-04-04T20:47:42.307Z,49.00
2023-04-04T20:50:45.715Z,49.80
2023-04-04T20:53:47.910Z,48.70
2023-04-04T20:56:50.237Z,48.60
2023-04-04T20:59:54.577Z,48.60
2023-04-04T21:02:59.206Z,48.70
2023-04-04T21:06:09.188Z,49.70
2023-04-04T21:09:11.197Z,49.00
2023-04-04T21:12:13.245Z,49.90
2023-04-04T21:15:25.672Z,50.30
2023-04-04T21:18:30.515Z,50.60
2023-04-04T21:21:32.486Z,50.90
2023-04-04T21:24:35.768Z,51.10
2023-04-04T21:27:37.915Z,49.90
2023-04-04T21:30:43.768Z,51.00
2023-04-04T21:33:48.183Z,50.20
2023-04-04T21:36:52.024Z,51.40
2023-04-04T21:39:57.162Z,51.00
2023-04-04T21:42:59.157Z,52.40
2023-04-04T21:46:01.136Z,51.10
2023-04-04T21:49:04.201Z,52.80
2023-04-04T21:52:06.066Z,54.70
2023-04-04T21:55:08.395Z,53.20
2023-04-04T21:58:10.442Z,53.40
2023-04-04T22:01:12.787Z,52.80
2023-04-04T22:04:14.857Z,54.70
2023-04-04T22:07:16.961Z,54.50
2023-04-04T22:10:19.298Z,54.90
2023-04-04T22:13:21.750Z,54.60
2023-04-04T22:16:23.795Z,53.50
2023-04-04T22:19:25.788Z,53.30
2023-04-04T22:22:27.808Z,54.70
2023-04-04T22:25:29.862Z,54.10
2023-04-04T22:28:35.564Z,54.40
2023-04-04T22:31:37.930Z,55.40
2023-04-04T22:34:39.972Z,53.70
2023-04-04T22:37:41.952Z,54.90
2023-04-04T22:40:43.937Z,54.60
2023-04-04T22:43:45.879Z,53.90
2023-04-04T22:46:47.848Z,54.00
2023-04-04T22:49:50.204Z,55.00
2023-04-04T22:52:52.486Z,54.90
2023-04-04T22:55:55.100Z,55.90
2023-04-04T22:58:57.093Z,55.00
2023-04-04T23:01:59.075Z,55.00
2023-04-04T23:05:01.046Z,55.60
2023-04-04T23:08:03.602Z,55.70
2023-04-04T23:11:08.521Z,55.40
2023-04-04T23:14:10.802Z,55.10
2023-04-04T23:17:13.121Z,55.20
2023-04-04T23:20:15.101Z,55.20
2023-04-04T23:23:17.107Z,55.30
2023-04-04T23:26:19.018Z,55.70
2023-04-04T23:29:21.036Z,55.20
2023-04-04T23:32:23.573Z,56.60
2023-04-04T23:35:25.574Z,56.50
2023-04-04T23:38:27.776Z,56.30
2023-04-04T23:41:29.812Z,57.60
2023-04-04T23:44:31.896Z,57.80
2023-04-04T23:47:34.171Z,57.60
2023-04-04T23:50:36.471Z,57.30
2023-04-04T23:53:38.776Z,58.20
2023-04-04T23:56:40.786Z,57.20
2023-04-04T23:59:43.294Z,57.50
